Time;durP1;ratioP1;P1;durP2;ratioP2;P2;SDS_P1;SDS_P2;PMS_P1;PMS_P2;Temp;Humidity;BMP_temperature;BMP_pressure;BME280_temperature;BME280_humidity;BME280_pressure;Samples;Min_cycle;Max_cycle;Signal;HPM_P1;HPM_P2
2022/07/02 00:00:52;;;;;;;;;;;12.80;99.90;;;;;;5084486;28;20393;-77
2022/07/02 00:03:24;;;;;;;;;;;12.80;99.90;;;;;;5083178;28;20500;-77
2022/07/02 00:05:55;;;;;;;;;;;12.80;99.90;;;;;;5078861;28;19935;-77
2022/07/02 00:08:23;;;;;;;;;;;12.70;99.90;;;;;;5078971;28;19932;-77
2022/07/02 00:10:50;;;;;;;;;;;12.70;99.90;;;;;;5080974;28;19928;-77
2022/07/02 00:13:17;;;;;;;;;;;12.70;99.90;;;;;;5079764;28;20387;-77
2022/07/02 00:15:44;;;;;;;;;;;12.70;99.90;;;;;;5080994;28;19938;-78
2022/07/02 00:18:11;;;;;;;;;;;12.70;99.90;;;;;;5079353;28;19940;-78
2022/07/02 00:20:41;;;;;;;;;;;12.70;99.90;;;;;;5080888;28;19935;-77
2022/07/02 00:23:08;;;;;;;;;;;12.70;99.90;;;;;;5078824;28;19932;-77
2022/07/02 00:25:38;;;;;;;;;;;12.70;99.90;;;;;;5075640;28;19936;-77
2022/07/02 00:28:06;;;;;;;;;;;12.60;99.90;;;;;;5079948;28;19948;-77
2022/07/02 00:30:33;;;;;;;;;;;12.60;99.90;;;;;;5079779;28;20321;-77
2022/07/02 00:33:01;;;;;;;;;;;12.60;99.90;;;;;;5079438;28;19932;-77
2022/07/02 00:35:28;;;;;;;;;;;12.60;99.90;;;;;;5078834;28;19931;-77
2022/07/02 00:37:56;;;;;;;;;;;12.50;99.90;;;;;;5078714;28;20304;-76
2022/07/02 00:40:24;;;;;;;;;;;12.50;99.90;;;;;;5077652;28;19950;-78
2022/07/02 00:42:51;;;;;;;;;;;12.50;99.90;;;;;;5082388;28;20502;-76
2022/07/02 00:45:18;;;;;;;;;;;12.60;99.90;;;;;;5082328;28;19932;-77
2022/07/02 00:47:44;;;;;;;;;;;12.50;99.90;;;;;;5084545;28;19932;-77
2022/07/02 00:50:11;;;;;;;;;;;12.50;99.90;;;;;;5081147;28;19939;-78
2022/07/02 00:52:38;;;;;;;;;;;12.40;99.90;;;;;;5098217;28;20511;-77
2022/07/02 00:55:06;;;;;;;;;;;12.40;99.90;;;;;;5085618;28;19978;-78
2022/07/02 00:57:33;;;;;;;;;;;12.40;99.90;;;;;;5085146;28;19932;-78
2022/07/02 01:00:00;;;;;;;;;;;12.40;99.90;;;;;;5086847;28;19932;-78
2022/07/02 01:02:28;;;;;;;;;;;12.40;99.90;;;;;;5086928;28;19932;-78
2022/07/02 01:04:56;;;;;;;;;;;12.40;99.90;;;;;;5091072;28;19939;-78
2022/07/02 01:07:23;;;;;;;;;;;12.30;99.90;;;;;;5099841;28;19943;-78
2022/07/02 01:12:37;;;;;;;;;;;12.30;99.90;;;;;;5109301;28;19936;-77
2022/07/02 01:15:04;;;;;;;;;;;12.20;99.90;;;;;;5091090;28;19993;-77
2022/07/02 01:17:31;;;;;;;;;;;12.30;99.90;;;;;;5096247;28;19932;-77
2022/07/02 01:19:57;;;;;;;;;;;12.20;99.90;;;;;;5087917;28;20022;-78
2022/07/02 01:22:26;;;;;;;;;;;12.20;99.90;;;;;;5086868;28;19939;-77
2022/07/02 01:24:53;;;;;;;;;;;12.20;99.90;;;;;;5085845;28;20305;-80
2022/07/02 01:27:20;;;;;;;;;;;12.20;99.90;;;;;;5086147;28;20448;-77
2022/07/02 01:29:47;;;;;;;;;;;12.10;99.90;;;;;;5085819;28;19936;-76
2022/07/02 01:32:14;;;;;;;;;;;12.10;99.90;;;;;;5085294;28;20972;-76
2022/07/02 01:34:42;;;;;;;;;;;12.10;99.90;;;;;;5085743;28;19939;-76
2022/07/02 01:37:09;;;;;;;;;;;12.10;99.90;;;;;;5084800;28;19968;-78
2022/07/02 01:39:38;;;;;;;;;;;12.00;99.90;;;;;;5084536;28;19975;-78
2022/07/02 01:42:05;;;;;;;;;;;12.00;99.90;;;;;;5085169;28;20008;-77
2022/07/02 01:44:33;;;;;;;;;;;12.00;99.90;;;;;;5083858;28;19940;-75
2022/07/02 01:47:00;;;;;;;;;;;12.00;99.90;;;;;;5086130;28;19959;-77
2022/07/02 01:49:27;;;;;;;;;;;12.00;99.90;;;;;;5081717;28;19932;-77
2022/07/02 01:51:54;;;;;;;;;;;12.00;99.90;;;;;;5082847;28;19939;-78
2022/07/02 01:54:20;;;;;;;;;;;11.20;99.90;;;;;;5084934;28;19939;-77
2022/07/02 01:56:48;;;;;;;;;;;11.90;99.90;;;;;;5083906;28;20661;-76
2022/07/02 01:59:16;;;;;;;;;;;11.90;99.90;;;;;;5078233;28;19932;-77
2022/07/02 02:01:43;;;;;;;;;;;11.90;99.90;;;;;;5084092;28;19985;-77
2022/07/02 02:04:10;;;;;;;;;;;11.80;99.90;;;;;;5084105;28;19932;-79
2022/07/02 02:06:37;;;;;;;;;;;11.80;99.90;;;;;;5083955;28;19932;-79
2022/07/02 02:09:04;;;;;;;;;;;11.80;99.90;;;;;;5085093;28;20865;-78
2022/07/02 02:11:32;;;;;;;;;;;11.80;99.90;;;;;;5084584;28;19936;-78
2022/07/02 02:14:00;;;;;;;;;;;11.80;99.90;;;;;;5085724;28;19932;-79
2022/07/02 02:16:27;;;;;;;;;;;11.70;99.90;;;;;;5082971;28;19939;-79
2022/07/02 02:18:54;;;;;;;;;;;11.70;99.90;;;;;;5085630;28;19935;-77
2022/07/02 02:21:21;;;;;;;;;;;11.70;99.90;;;;;;5081262;28;19932;-78
2022/07/02 02:23:48;;;;;;;;;;;11.70;99.90;;;;;;5085075;28;19928;-77
2022/07/02 02:26:15;;;;;;;;;;;11.70;99.90;;;;;;5083202;28;20492;-78
2022/07/02 02:28:41;;;;;;;;;;;11.70;99.90;;;;;;5084500;28;19954;-78
2022/07/02 02:31:09;;;;;;;;;;;11.60;99.90;;;;;;5084777;28;19932;-78
2022/07/02 02:33:36;;;;;;;;;;;11.60;99.90;;;;;;5085707;28;20440;-78
2022/07/02 02:36:03;;;;;;;;;;;11.60;99.90;;;;;;5081355;28;20132;-78
2022/07/02 02:38:30;;;;;;;;;;;11.60;99.90;;;;;;5084453;28;20293;-77
2022/07/02 02:40:57;;;;;;;;;;;11.60;99.90;;;;;;5084571;28;19932;-80
2022/07/02 02:43:24;;;;;;;;;;;11.60;99.90;;;;;;5084293;28;19951;-77
2022/07/02 02:45:50;;;;;;;;;;;11.60;99.90;;;;;;5084339;28;20411;-77
2022/07/02 02:48:18;;;;;;;;;;;11.60;99.90;;;;;;5083393;28;19932;-81
2022/07/02 02:50:45;;;;;;;;;;;11.60;99.90;;;;;;5095976;28;20491;-79
2022/07/02 02:53:12;;;;;;;;;;;11.60;99.90;;;;;;5082323;28;19941;-79
2022/07/02 02:55:38;;;;;;;;;;;11.60;99.90;;;;;;5084787;28;19932;-78
2022/07/02 02:58:05;;;;;;;;;;;11.50;99.90;;;;;;5084507;28;20338;-78
2022/07/02 03:00:32;;;;;;;;;;;11.50;99.90;;;;;;5084183;28;19932;-77
2022/07/02 03:02:59;;;;;;;;;;;11.50;99.90;;;;;;5082334;28;19939;-77
2022/07/02 03:05:28;;;;;;;;;;;11.50;99.90;;;;;;5081453;28;20019;-77
2022/07/02 03:07:54;;;;;;;;;;;11.50;99.90;;;;;;5081975;28;19932;-78
2022/07/02 03:10:21;;;;;;;;;;;11.40;99.90;;;;;;5083209;28;20270;-78
2022/07/02 03:12:48;;;;;;;;;;;11.50;99.90;;;;;;5081469;28;19938;-78
2022/07/02 03:15:14;;;;;;;;;;;11.50;99.90;;;;;;5082543;28;19928;-76
2022/07/02 03:17:41;;;;;;;;;;;11.40;99.90;;;;;;5081484;28;20393;-77
2022/07/02 03:20:08;;;;;;;;;;;11.40;99.90;;;;;;5082757;28;20325;-77
2022/07/02 03:22:36;;;;;;;;;;;11.40;99.90;;;;;;5082791;28;19932;-77
2022/07/02 03:25:03;;;;;;;;;;;11.40;99.90;;;;;;5083199;28;19932;-77
2022/07/02 03:27:31;;;;;;;;;;;11.40;99.90;;;;;;5082024;28;20628;-77
2022/07/02 03:29:57;;;;;;;;;;;11.40;99.90;;;;;;5081534;28;21780;-76
2022/07/02 03:32:28;;;;;;;;;;;11.40;99.90;;;;;;5082513;28;20018;-76
2022/07/02 03:34:55;;;;;;;;;;;11.40;99.90;;;;;;5083632;28;19939;-76
2022/07/02 03:37:26;;;;;;;;;;;11.40;99.90;;;;;;5082477;28;19954;-76
2022/07/02 03:39:54;;;;;;;;;;;11.40;99.90;;;;;;5081070;28;19940;-76
2022/07/02 03:42:21;;;;;;;;;;;11.50;99.90;;;;;;5083385;28;19939;-78
2022/07/02 03:44:48;;;;;;;;;;;11.50;99.90;;;;;;5079148;28;19932;-77
2022/07/02 03:47:14;;;;;;;;;;;11.60;99.90;;;;;;5089235;28;19935;-77
2022/07/02 03:49:41;;;;;;;;;;;11.60;99.90;;;;;;5095284;28;19928;-76
2022/07/02 03:52:08;;;;;;;;;;;11.60;99.90;;;;;;5090833;28;19927;-77
2022/07/02 03:54:35;;;;;;;;;;;11.60;99.90;;;;;;5091077;28;19928;-78
2022/07/02 03:57:03;;;;;;;;;;;11.60;99.90;;;;;;5076317;28;20021;-76
2022/07/02 03:59:30;;;;;;;;;;;11.60;99.90;;;;;;5071000;28;19936;-76
2022/07/02 04:01:57;;;;;;;;;;;11.70;99.90;;;;;;5070387;28;20436;-78
2022/07/02 04:04:23;;;;;;;;;;;11.60;99.90;;;;;;5073920;28;19928;-76
2022/07/02 04:06:50;;;;;;;;;;;11.70;99.90;;;;;;5083891;28;19924;-76
2022/07/02 04:09:17;;;;;;;;;;;11.70;99.90;;;;;;5086995;28;19951;-78
2022/07/02 04:11:43;;;;;;;;;;;11.80;99.90;;;;;;5072605;28;19934;-76
2022/07/02 04:14:11;;;;;;;;;;;11.80;99.90;;;;;;5069846;28;20390;-76
2022/07/02 04:16:38;;;;;;;;;;;11.90;99.90;;;;;;5069490;28;19924;-77
2022/07/02 04:19:05;;;;;;;;;;;11.90;99.90;;;;;;5070643;28;20301;-77
2022/07/02 04:21:31;;;;;;;;;;;12.00;99.90;;;;;;5088977;28;20079;-77
2022/07/02 04:23:58;;;;;;;;;;;12.00;99.90;;;;;;5080622;28;20342;-76
2022/07/02 04:26:25;;;;;;;;;;;12.10;99.90;;;;;;5091040;28;19999;-77
2022/07/02 04:28:52;;;;;;;;;;;12.20;99.90;;;;;;5088794;28;20047;-78
2022/07/02 04:31:20;;;;;;;;;;;12.20;99.90;;;;;;5090001;28;20423;-76
2022/07/02 04:33:46;;;;;;;;;;;12.30;99.90;;;;;;5085904;28;19931;-76
2022/07/02 04:36:13;;;;;;;;;;;12.40;99.90;;;;;;5089456;28;20316;-75
2022/07/02 04:38:40;;;;;;;;;;;13.00;99.90;;;;;;5088273;28;20006;-75
2022/07/02 04:41:06;;;;;;;;;;;12.60;99.90;;;;;;5081365;28;19928;-75
2022/07/02 04:43:33;;;;;;;;;;;12.70;99.90;;;;;;5091237;28;19924;-75
2022/07/02 04:46:00;;;;;;;;;;;12.90;99.90;;;;;;5088001;28;20327;-78
2022/07/02 04:48:28;;;;;;;;;;;13.00;99.90;;;;;;5069615;28;19928;-78
2022/07/02 04:50:55;;;;;;;;;;;13.10;99.90;;;;;;5072359;28;20282;-76
2022/07/02 04:53:21;;;;;;;;;;;13.70;99.90;;;;;;5070801;28;20293;-77
2022/07/02 04:55:48;;;;;;;;;;;13.30;99.90;;;;;;5072840;28;19938;-77
2022/07/02 04:58:15;;;;;;;;;;;13.50;99.90;;;;;;5088496;28;19931;-77
2022/07/02 05:00:41;;;;;;;;;;;13.50;99.90;;;;;;5090747;28;20195;-77
2022/07/02 05:03:08;;;;;;;;;;;13.60;99.90;;;;;;5079622;28;20333;-75
2022/07/02 05:05:36;;;;;;;;;;;13.80;99.90;;;;;;5088714;28;19924;-75
2022/07/02 05:08:03;;;;;;;;;;;13.90;99.90;;;;;;5081343;28;19928;-76
2022/07/02 05:10:30;;;;;;;;;;;14.00;99.90;;;;;;5071032;28;20311;-76
2022/07/02 05:12:56;;;;;;;;;;;14.20;99.90;;;;;;5067777;28;19928;-75
2022/07/02 05:15:23;;;;;;;;;;;14.30;99.90;;;;;;5068907;28;19983;-75
2022/07/02 05:17:50;;;;;;;;;;;14.50;99.90;;;;;;5069602;28;19991;-76
2022/07/02 05:20:17;;;;;;;;;;;14.60;99.90;;;;;;5077773;28;19978;-75
2022/07/02 05:22:45;;;;;;;;;;;14.70;99.90;;;;;;5080165;28;19934;-75
2022/07/02 05:25:11;;;;;;;;;;;14.90;99.90;;;;;;5070057;28;19928;-76
2022/07/02 05:27:38;;;;;;;;;;;15.30;99.90;;;;;;5069172;28;19932;-76
2022/07/02 05:30:06;;;;;;;;;;;15.20;99.90;;;;;;5087855;28;19928;-76
2022/07/02 05:32:32;;;;;;;;;;;15.40;99.90;;;;;;5088786;28;19935;-76
2022/07/02 05:34:59;;;;;;;;;;;15.70;99.90;;;;;;5088975;28;19935;-76
2022/07/02 05:37:26;;;;;;;;;;;16.10;99.90;;;;;;5086538;28;19924;-76
2022/07/02 05:39:54;;;;;;;;;;;17.60;99.90;;;;;;5079459;28;19936;-76
2022/07/02 05:42:20;;;;;;;;;;;19.30;99.90;;;;;;5075887;28;20324;-75
2022/07/02 05:44:47;;;;;;;;;;;21.10;99.90;;;;;;5071443;28;20010;-77
2022/07/02 05:47:14;;;;;;;;;;;22.60;99.90;;;;;;5080995;28;19924;-77
2022/07/02 05:49:40;;;;;;;;;;;24.10;99.90;;;;;;5088924;28;19936;-77
2022/07/02 05:52:07;;;;;;;;;;;25.40;99.90;;;;;;5090491;28;20346;-77
2022/07/02 05:54:34;;;;;;;;;;;26.70;99.90;;;;;;5092952;28;19935;-77
2022/07/02 05:57:02;;;;;;;;;;;28.80;99.90;;;;;;5094062;28;19928;-77
2022/07/02 05:59:29;;;;;;;;;;;29.20;99.90;;;;;;5086330;28;20009;-77
2022/07/02 06:01:56;;;;;;;;;;;29.90;99.90;;;;;;5088226;28;19925;-77
2022/07/02 06:04:22;;;;;;;;;;;30.90;99.90;;;;;;5095059;28;19968;-77
2022/07/02 06:09:33;;;;;;;;;;;32.40;99.90;;;;;;5093607;28;20014;-79
2022/07/02 06:12:03;;;;;;;;;;;33.20;99.90;;;;;;5091338;28;20047;-77
2022/07/02 06:14:29;;;;;;;;;;;33.70;99.90;;;;;;5080049;28;19932;-77
2022/07/02 06:16:56;;;;;;;;;;;33.90;97.70;;;;;;5089224;28;19927;-77
2022/07/02 06:19:23;;;;;;;;;;;34.10;98.30;;;;;;5085981;28;20453;-77
2022/07/02 06:21:50;;;;;;;;;;;34.30;94.80;;;;;;5093948;28;19960;-77
2022/07/02 06:24:18;;;;;;;;;;;34.50;94.60;;;;;;5094365;28;19932;-77
2022/07/02 06:26:45;;;;;;;;;;;34.90;92.20;;;;;;5093986;28;19931;-76
2022/07/02 06:29:13;;;;;;;;;;;34.60;91.40;;;;;;5095226;28;19935;-77
2022/07/02 06:31:39;;;;;;;8.35;3.53;;;35.50;88.90;;;;;;5093712;28;20060;-76
2022/07/02 06:34:06;;;;;;;9.68;3.47;;;35.90;85.50;;;;;;5089307;28;20210;-76
2022/07/02 06:36:34;;;;;;;;;;;35.90;83.80;;;;;;5085705;28;20206;-77
2022/07/02 06:39:00;;;;;;;;;;;35.90;84.60;;;;;;5076316;28;19924;-76
2022/07/02 06:44:13;;;;;;;;;;;36.30;80.40;;;;;;5084869;28;19947;-76
2022/07/02 06:46:39;;;;;;;;;;;36.60;75.20;;;;;;5087771;28;19927;-76
2022/07/02 06:49:06;;;;;;;;;;;36.90;78.20;;;;;;5097174;28;19924;-77
2022/07/02 06:51:33;;;;;;;;;;;37.00;75.30;;;;;;5086121;28;19928;-77
2022/07/02 06:54:01;;;;;;;;;;;37.30;73.10;;;;;;5089975;28;19935;-77
2022/07/02 06:56:28;;;;;;;;;;;37.40;72.60;;;;;;5080871;28;19921;-77
2022/07/02 06:58:55;;;;;;;;;;;37.50;75.00;;;;;;5099979;28;19970;-77
2022/07/02 07:01:23;;;;;;;;;;;37.60;70.50;;;;;;5092068;28;19946;-76
2022/07/02 07:03:51;;;;;;;;;;;37.90;68.50;;;;;;5092762;28;19928;-77
2022/07/02 07:06:18;;;;;;;;;;;38.10;67.50;;;;;;5093446;28;20004;-77
2022/07/02 07:08:44;;;;;;;;;;;38.30;70.40;;;;;;5092482;28;19980;-77
2022/07/02 07:11:11;;;;;;;;;;;38.30;66.30;;;;;;5081821;28;19920;-77
2022/07/02 07:13:38;;;;;;;;;;;38.50;64.40;;;;;;5090689;28;19928;-77
2022/07/02 07:16:05;;;;;;;;;;;38.70;61.80;;;;;;5078460;28;20019;-77
2022/07/02 07:18:33;;;;;;;;;;;38.50;61.30;;;;;;5083091;28;20008;-76
2022/07/02 07:21:00;;;;;;;;;;;38.30;61.50;;;;;;5075375;28;19959;-77
2022/07/02 07:23:26;;;;;;;;;;;38.30;60.10;;;;;;5084005;28;19932;-75
2022/07/02 07:25:53;;;;;;;;;;;38.20;60.50;;;;;;5083732;28;19966;-75
2022/07/02 07:28:21;;;;;;;;;;;38.30;60.40;;;;;;5086666;28;19928;-74
2022/07/02 07:30:47;;;;;;;;;;;38.30;59.70;;;;;;5080476;28;19927;-77
2022/07/02 07:33:14;;;;;;;;;;;38.20;59.60;;;;;;5092575;28;19934;-75
2022/07/02 07:35:42;;;;;;;;;;;38.40;60.30;;;;;;5088981;28;19924;-75
2022/07/02 07:38:09;;;;;;;;;;;38.50;60.30;;;;;;5089670;28;19932;-75
2022/07/02 07:40:36;;;;;;;;;;;38.50;57.70;;;;;;5090001;28;20389;-76
2022/07/02 07:43:03;;;;;;;;;;;38.50;57.90;;;;;;5081251;28;19925;-76
2022/07/02 07:45:30;;;;;;;;;;;38.50;57.80;;;;;;5088420;28;20341;-76
2022/07/02 07:47:56;;;;;;;;;;;38.30;58.70;;;;;;5088352;28;19933;-75
2022/07/02 07:50:24;;;;;;;12.77;4.05;;;38.50;57.10;;;;;;5082165;28;20410;-77
2022/07/02 07:52:52;;;;;;;10.07;3.60;;;38.30;56.40;;;;;;5079070;28;20211;-76
2022/07/02 07:55:22;;;;;;;12.15;3.75;;;38.30;56.60;;;;;;5087023;28;20215;-76
2022/07/02 07:57:48;;;;;;;12.70;4.18;;;38.50;57.50;;;;;;5081856;28;20629;-77
2022/07/02 08:00:16;;;;;;;11.02;4.18;;;38.50;56.50;;;;;;5069903;28;20204;-76
2022/07/02 08:02:44;;;;;;;8.70;3.80;;;38.60;56.00;;;;;;5080076;28;20206;-77
2022/07/02 08:05:11;;;;;;;9.77;3.70;;;38.60;55.50;;;;;;5081470;28;20206;-76
2022/07/02 08:07:39;;;;;;;11.05;4.15;;;38.10;54.90;;;;;;5078907;28;20242;-76
2022/07/02 08:10:10;;;;;;;13.82;4.22;;;38.00;55.30;;;;;;5084954;28;20557;-76
2022/07/02 08:12:37;;;;;;;10.38;3.70;;;38.20;55.10;;;;;;5083286;28;20212;-76
2022/07/02 08:15:05;;;;;;;10.00;3.67;;;37.90;54.50;;;;;;5086097;28;20213;-77
2022/07/02 08:17:32;;;;;;;10.57;4.05;;;37.70;54.40;;;;;;5084896;28;20200;-76
2022/07/02 08:19:59;;;;;;;13.68;4.55;;;37.00;55.50;;;;;;5085608;28;20220;-77
2022/07/02 08:22:26;;;;;;;10.52;3.72;;;37.00;54.60;;;;;;5076096;28;20211;-76
2022/07/02 08:24:53;;;;;;;11.75;4.10;;;37.00;54.80;;;;;;5079295;28;20212;-77
2022/07/02 08:27:21;;;;;;;14.90;4.80;;;36.90;54.30;;;;;;5076760;28;20224;-76
2022/07/02 08:29:48;;;;;;;10.82;3.92;;;37.00;54.60;;;;;;5077829;28;20224;-76
2022/07/02 08:32:15;;;;;;;9.45;3.75;;;37.10;54.80;;;;;;5078602;28;20286;-76
2022/07/02 08:34:42;;;;;;;8.80;3.47;;;37.20;53.60;;;;;;5080169;28;20208;-74
2022/07/02 08:37:10;;;;;;;12.23;3.38;;;37.30;53.90;;;;;;5080024;28;20273;-75
2022/07/02 08:39:36;;;;;;;9.60;3.60;;;37.50;53.50;;;;;;5078951;28;20259;-75
2022/07/02 08:42:05;;;;;;;10.35;3.65;;;37.20;52.00;;;;;;5070988;28;20209;-75
2022/07/02 08:44:35;;;;;;;12.05;3.60;;;37.00;51.90;;;;;;5075871;28;20249;-75
2022/07/02 08:47:08;;;;;;;12.30;3.55;;;36.90;52.40;;;;;;5091830;28;20239;-77
2022/07/02 08:49:35;;;;;;;11.98;3.75;;;36.60;51.90;;;;;;5091813;28;20223;-77
2022/07/02 08:52:03;;;;;;;11.82;3.70;;;36.40;52.30;;;;;;5089205;28;20246;-77
2022/07/02 08:54:32;;;;;;;10.63;3.50;;;36.40;52.40;;;;;;5082683;28;20269;-77
2022/07/02 08:57:02;;;;;;;11.77;3.65;;;36.30;52.40;;;;;;5082530;28;21271;-77
2022/07/02 08:59:30;;;;;;;12.45;3.88;;;36.20;51.80;;;;;;5086328;28;20231;-77
2022/07/02 09:01:59;;;;;;;11.25;3.78;;;36.10;51.60;;;;;;5081519;28;20207;-76
2022/07/02 09:04:27;;;;;;;11.55;3.63;;;35.70;52.10;;;;;;5080040;28;20220;-77
2022/07/02 09:06:57;;;;;;;13.88;4.10;;;35.30;51.50;;;;;;5078700;28;20231;-76
2022/07/02 09:09:26;;;;;;;11.57;3.60;;;34.80;52.30;;;;;;5080645;28;20646;-76
2022/07/02 09:11:53;;;;;;;11.40;3.30;;;34.70;52.90;;;;;;5081485;28;20269;-76
2022/07/02 09:14:20;;;;;;;10.18;3.38;;;34.70;53.10;;;;;;5081695;28;20219;-75
2022/07/02 09:16:48;;;;;;;13.20;3.83;;;34.70;53.40;;;;;;5081909;28;20766;-76
2022/07/02 09:19:18;;;;;;;13.55;3.72;;;34.70;52.50;;;;;;5079378;28;20231;-76
2022/07/02 09:21:49;;;;;;;11.63;3.60;;;34.60;50.70;;;;;;5081234;28;20212;-76
2022/07/02 09:24:15;;;;;;;11.93;3.58;;;34.20;51.50;;;;;;5080713;28;20207;-76
2022/07/02 09:26:42;;;;;;;14.30;4.15;;;33.90;52.50;;;;;;5083214;28;20246;-76
2022/07/02 09:29:09;;;;;;;13.73;3.80;;;33.60;51.90;;;;;;5088171;28;20529;-76
2022/07/02 09:31:49;;;;;;;13.90;4.00;;;33.20;51.90;;;;;;5081872;28;20299;-75
2022/07/02 09:34:26;;;;;;;11.40;3.38;;;33.20;53.20;;;;;;5084951;28;20215;-76
2022/07/02 09:36:53;;;;;;;10.30;3.70;;;32.80;53.00;;;;;;5081706;28;20215;-76
2022/07/02 09:39:28;;;;;;;11.48;3.58;;;32.90;52.50;;;;;;5079755;28;20289;-76
2022/07/02 09:41:55;;;;;;;9.48;3.30;;;32.70;53.00;;;;;;5088475;28;20211;-76
2022/07/02 09:44:22;;;;;;;9.75;3.40;;;32.50;53.80;;;;;;5093512;28;20207;-76
2022/07/02 09:46:49;;;;;;;10.18;3.45;;;32.20;54.50;;;;;;5085259;28;20216;-76
2022/07/02 09:49:17;;;;;;;10.00;3.50;;;32.00;53.40;;;;;;5086134;28;20219;-76
2022/07/02 09:51:49;;;;;;;11.05;3.25;;;31.70;53.90;;;;;;5093412;28;20229;-76
2022/07/02 09:54:21;;;;;;;10.98;3.20;;;31.10;53.30;;;;;;5096114;28;20207;-75
2022/07/02 09:56:53;;;;;;;9.20;3.03;;;30.60;54.70;;;;;;5097333;28;20203;-76
2022/07/02 09:59:20;;;;;;;11.27;3.42;;;30.30;54.20;;;;;;5108298;28;20236;-75
2022/07/02 10:01:47;;;;;;;7.57;2.70;;;30.30;55.00;;;;;;5103048;28;20204;-76
2022/07/02 10:04:14;;;;;;;10.32;3.05;;;30.10;55.70;;;;;;5095457;28;20290;-76
2022/07/02 10:06:43;;;;;;;11.77;3.03;;;29.90;55.70;;;;;;5096253;28;20245;-76
2022/07/02 10:09:13;;;;;;;14.17;3.80;;;29.60;54.70;;;;;;5091264;28;20221;-76
2022/07/02 10:11:41;;;;;;;10.57;3.17;;;29.30;55.30;;;;;;5087958;28;20207;-76
2022/07/02 10:14:10;;;;;;;10.70;3.20;;;28.80;54.90;;;;;;5080473;28;20204;-76
2022/07/02 10:16:39;;;;;;;12.27;3.50;;;28.40;56.30;;;;;;5096391;28;20655;-76
2022/07/02 10:19:07;;;;;;;9.63;3.07;;;27.90;56.10;;;;;;5095776;28;20522;-76
2022/07/02 10:21:34;;;;;;;10.67;2.93;;;27.60;57.00;;;;;;5073840;28;20208;-76
2022/07/02 10:24:02;;;;;;;16.00;3.67;;;27.40;57.60;;;;;;5086569;28;20562;-77
2022/07/02 10:26:31;;;;;;;11.27;3.10;;;27.10;57.70;;;;;;5094839;28;20216;-76
2022/07/02 10:29:01;;;;;;;10.93;3.27;;;26.70;57.70;;;;;;5084894;28;20225;-76
2022/07/02 10:31:32;;;;;;;11.17;3.37;;;26.60;58.20;;;;;;5088791;28;20293;-76
2022/07/02 10:34:10;;;;;;;9.03;2.83;;;26.50;58.60;;;;;;5085672;28;20291;-77
2022/07/02 10:36:37;;;;;;;9.50;3.00;;;26.50;59.90;;;;;;5078320;28;20212;-75
2022/07/02 10:39:06;;;;;;;9.93;3.00;;;26.30;59.00;;;;;;5077192;28;20235;-76
2022/07/02 10:41:34;;;;;;;12.07;3.20;;;26.20;60.00;;;;;;5090364;28;20306;-75
2022/07/02 10:44:01;;;;;;;8.83;2.80;;;26.00;59.80;;;;;;5096820;28;20200;-76
2022/07/02 10:46:34;;;;;;;11.90;3.20;;;25.80;60.30;;;;;;5086862;28;20220;-76
2022/07/02 10:49:01;;;;;;;7.63;2.53;;;25.70;59.70;;;;;;5073963;28;20262;-76
2022/07/02 10:51:29;;;;;;;8.53;2.93;;;25.70;60.70;;;;;;5075363;28;20200;-76
2022/07/02 10:53:59;;;;;;;8.50;2.80;;;25.60;60.90;;;;;;5075041;28;20206;-76
2022/07/02 10:56:27;;;;;;;9.50;2.93;;;25.60;61.70;;;;;;5084018;28;20344;-76
2022/07/02 10:58:55;;;;;;;9.63;2.90;;;25.60;61.60;;;;;;5096160;28;20532;-76
2022/07/02 11:01:24;;;;;;;9.80;2.90;;;25.60;61.90;;;;;;5097108;28;20196;-77
2022/07/02 11:03:56;;;;;;;8.43;2.80;;;25.60;62.80;;;;;;5099990;28;20200;-77
2022/07/02 11:06:24;;;;;;;8.87;2.53;;;25.70;61.70;;;;;;5100432;28;20200;-77
2022/07/02 11:08:53;;;;;;;7.83;2.90;;;26.00;60.70;;;;;;5089748;28;20284;-78
2022/07/02 11:11:23;;;;;;;8.67;2.40;;;26.10;60.70;;;;;;5083359;28;20833;-81
2022/07/02 11:13:55;;;;;;;7.83;2.27;;;26.30;60.60;;;;;;5088102;28;20214;-80
2022/07/02 11:16:26;;;;;;;8.07;2.80;;;26.30;60.50;;;;;;5092154;28;20203;-80
2022/07/02 11:18:54;;;;;;;7.97;2.83;;;26.50;60.30;;;;;;5095117;28;20227;-79
2022/07/02 11:21:24;;;;;;;8.17;3.00;;;26.60;60.70;;;;;;5084700;28;20262;-80
2022/07/02 11:23:52;;;;;;;8.90;2.97;;;26.70;60.70;;;;;;5076110;28;20207;-79
2022/07/02 11:26:20;;;;;;;8.17;3.03;;;26.90;60.70;;;;;;5075294;28;20205;-78
2022/07/02 11:28:47;;;;;;;10.10;2.60;;;27.10;60.10;;;;;;5081221;28;20647;-79
2022/07/02 11:31:14;;;;;;;8.50;2.87;;;27.10;60.10;;;;;;5091507;28;20239;-78
2022/07/02 11:33:51;;;;;;;8.57;2.70;;;27.20;59.80;;;;;;5095301;28;20202;-78
2022/07/02 11:36:18;;;;;;;8.90;3.00;;;27.30;59.80;;;;;;5090418;28;20202;-79
2022/07/02 11:38:46;;;;;;;7.50;2.63;;;27.30;59.00;;;;;;5091288;28;20231;-79
2022/07/02 11:41:17;;;;;;;7.23;2.57;;;27.20;59.50;;;;;;5094606;28;20196;-79
2022/07/02 11:43:45;;;;;;;7.40;2.57;;;27.40;59.90;;;;;;5087915;28;20259;-79
2022/07/02 11:46:13;;;;;;;11.23;3.10;;;27.30;59.30;;;;;;5090563;28;20208;-80
2022/07/02 11:48:41;;;;;;;7.80;2.80;;;27.20;58.80;;;;;;5086073;28;20303;-79
2022/07/02 11:51:09;;;;;;;6.37;2.57;;;27.20;59.30;;;;;;5084434;28;20679;-79
2022/07/02 11:53:37;;;;;;;8.23;2.90;;;27.20;59.50;;;;;;5105856;28;20212;-80
2022/07/02 11:56:08;;;;;;;8.77;2.73;;;27.30;60.00;;;;;;5091892;28;20729;-79
2022/07/02 11:58:43;;;;;;;8.97;3.03;;;27.50;59.00;;;;;;5093249;28;20436;-77
2022/07/02 12:01:31;;;;;;;6.70;2.57;;;27.50;59.50;;;;;;5091896;28;20446;-77
2022/07/02 12:04:00;;;;;;;6.60;2.60;;;27.60;59.50;;;;;;5085895;28;20222;-78
2022/07/02 12:06:30;;;;;;;12.73;2.90;;;27.90;59.60;;;;;;5087124;28;20209;-78
2022/07/02 12:08:59;;;;;;;7.83;2.30;;;28.10;58.80;;;;;;5084677;28;20261;-78
2022/07/02 12:11:26;;;;;;;10.10;3.00;;;28.10;59.00;;;;;;5084407;28;20213;-77
2022/07/02 12:13:55;;;;;;;9.67;2.80;;;28.10;59.20;;;;;;5084631;28;20213;-78
2022/07/02 12:16:24;;;;;;;9.30;3.00;;;28.10;58.70;;;;;;5086905;28;20292;-77
2022/07/02 12:19:01;;;;;;;7.80;2.80;;;28.30;58.40;;;;;;5074715;28;20249;-77
2022/07/02 12:21:36;;;;;;;8.03;2.60;;;28.30;58.70;;;;;;5072186;28;20232;-77
2022/07/02 12:24:05;;;;;;;10.53;2.93;;;28.30;59.00;;;;;;5083067;28;20538;-77
2022/07/02 12:26:32;;;;;;;8.17;2.40;;;28.50;58.80;;;;;;5081526;28;20290;-77
2022/07/02 12:31:50;;;;;;;6.47;2.50;;;28.70;58.50;;;;;;5089446;28;20210;-78
2022/07/02 12:34:17;;;;;;;;;;;28.60;58.30;;;;;;5084198;28;20211;-79
2022/07/02 12:37:01;;;;;;;;;;;28.60;59.50;;;;;;5091235;28;20034;-78
2022/07/02 12:39:39;;;;;;;;;;;28.80;58.60;;;;;;5084685;28;19999;-78
2022/07/02 12:42:13;;;;;;;;;;;28.90;58.90;;;;;;5076137;28;19951;-78
2022/07/02 12:44:50;;;;;;;;;;;28.90;58.40;;;;;;5077000;28;19992;-78
2022/07/02 12:47:22;;;;;;;;;;;28.90;58.80;;;;;;5078849;28;19931;-78
2022/07/02 12:49:52;;;;;;;;;;;29.10;58.00;;;;;;5092437;28;19920;-79
2022/07/02 12:52:19;;;;;;;;;;;29.10;58.40;;;;;;5078057;28;19928;-78
2022/07/02 12:54:47;;;;;;;;;;;29.10;58.70;;;;;;5078352;28;19928;-79
2022/07/02 12:57:18;;;;;;;;;;;29.10;58.60;;;;;;5079070;28;19943;-78
2022/07/02 12:59:44;;;;;;;;;;;28.90;58.40;;;;;;5081905;28;19982;-79
2022/07/02 13:02:15;;;;;;;;;;;29.70;59.70;;;;;;5086526;28;20428;-78
2022/07/02 13:04:43;;;;;;;;;;;29.10;59.60;;;;;;5081867;28;19951;-80
2022/07/02 13:07:11;;;;;;;;;;;29.00;60.30;;;;;;5076688;28;19924;-78
2022/07/02 13:09:37;;;;;;;;;;;29.00;59.40;;;;;;5088688;28;20380;-78
2022/07/02 13:12:06;;;;;;;;;;;28.60;58.80;;;;;;5079266;28;19928;-79
2022/07/02 13:14:33;;;;;;;;;;;28.40;59.70;;;;;;5077398;28;20858;-79
2022/07/02 13:16:59;;;;;;;;;;;28.30;60.20;;;;;;5074135;28;20026;-79
2022/07/02 13:19:26;;;;;;;;;;;28.30;59.60;;;;;;5086593;28;20464;-78
2022/07/02 13:21:53;;;;;;;;;;;28.30;59.60;;;;;;5090007;28;19969;-79
2022/07/02 13:24:19;;;;;;;;;;;28.30;59.70;;;;;;5090021;28;19920;-79
2022/07/02 13:26:46;;;;;;;;;;;28.50;59.60;;;;;;5089562;28;19920;-78
2022/07/02 13:29:14;;;;;;;;;;;28.90;60.20;;;;;;5073524;28;19924;-79
2022/07/02 13:31:41;;;;;;;;;;;29.10;59.70;;;;;;5089680;28;19920;-80
2022/07/02 13:34:08;;;;;;;;;;;29.20;59.90;;;;;;5083184;28;19924;-80
2022/07/02 13:36:34;;;;;;;;;;;29.30;59.50;;;;;;5083147;28;20342;-78
2022/07/02 13:39:01;;;;;;;;;;;29.00;58.60;;;;;;5084572;28;19924;-78
2022/07/02 13:41:28;;;;;;;;;;;28.90;60.00;;;;;;5082842;28;19923;-79
2022/07/02 13:43:55;;;;;;;;;;;28.60;58.90;;;;;;5089821;28;19928;-79
2022/07/02 13:46:23;;;;;;;;;;;28.50;59.90;;;;;;5089292;28;19938;-78
2022/07/02 13:48:49;;;;;;;;;;;28.40;59.20;;;;;;5085821;28;20400;-78
2022/07/02 13:51:16;;;;;;;;;;;28.50;60.10;;;;;;5091725;28;20481;-81
2022/07/02 13:53:43;;;;;;;;;;;28.50;59.90;;;;;;5090766;28;19967;-78
2022/07/02 13:56:10;;;;;;;;;;;28.60;59.50;;;;;;5082469;28;19983;-79